createdAt,value
2023-01-29T00:02:15.863Z,66.19
2023-01-29T00:04:43.018Z,66.18
2023-01-29T00:07:10.174Z,66.16
2023-01-29T00:09:37.342Z,66.11
2023-01-29T00:12:04.648Z,66.21
2023-01-29T00:14:31.817Z,66.10
2023-01-29T00:16:59.114Z,66.16
2023-01-29T00:19:26.196Z,66.16
2023-01-29T00:21:53.524Z,66.17
2023-01-29T00:24:20.768Z,66.07
2023-01-29T00:26:50.318Z,66.25
2023-01-29T00:29:18.033Z,66.27
2023-01-29T00:31:45.922Z,66.18
2023-01-29T00:34:13.605Z,66.29
2023-01-29T00:36:40.886Z,66.41
2023-01-29T00:39:10.956Z,66.33
2023-01-29T00:41:57.961Z,66.33
2023-01-29T00:44:44.101Z,66.30
2023-01-29T00:47:29.984Z,66.40
2023-01-29T00:49:57.750Z,66.53
2023-01-29T00:52:24.931Z,66.56
2023-01-29T00:54:55.572Z,66.51
2023-01-29T00:57:23.394Z,66.45
2023-01-29T00:59:50.651Z,66.51
2023-01-29T01:02:36.494Z,66.52
2023-01-29T01:05:07.911Z,66.51
2023-01-29T01:07:35.159Z,66.54
2023-01-29T01:10:21.035Z,66.53
2023-01-29T01:12:54.624Z,66.59
2023-01-29T01:15:24.015Z,66.67
2023-01-29T01:18:01.296Z,66.60
2023-01-29T01:20:31.725Z,66.50
2023-01-29T01:22:58.926Z,66.43
2023-01-29T01:25:27.440Z,66.43
2023-01-29T01:27:57.487Z,66.54
2023-01-29T01:30:24.935Z,66.51
2023-01-29T01:32:52.236Z,66.54
2023-01-29T01:35:19.411Z,66.51
2023-01-29T01:37:46.699Z,66.59
2023-01-29T01:40:19.448Z,66.55
2023-01-29T01:42:52.013Z,66.55
2023-01-29T01:45:22.347Z,66.62
2023-01-29T01:47:54.657Z,66.61
2023-01-29T01:50:29.715Z,66.73
2023-01-29T01:53:05.183Z,66.63
2023-01-29T01:55:35.123Z,66.62
2023-01-29T01:58:18.476Z,66.60
2023-01-29T02:00:45.748Z,66.47
2023-01-29T02:03:32.297Z,66.57
2023-01-29T02:06:19.457Z,66.72
2023-01-29T02:09:18.069Z,66.65
2023-01-29T02:11:45.376Z,66.64
2023-01-29T02:14:12.857Z,66.69
2023-01-29T02:16:40.037Z,66.59
2023-01-29T02:19:16.862Z,66.56
2023-01-29T02:21:50.263Z,66.59
2023-01-29T02:24:36.330Z,66.66
2023-01-29T02:27:07.780Z,66.61
2023-01-29T02:29:47.063Z,66.57
2023-01-29T02:32:22.251Z,66.61
2023-01-29T02:35:23.680Z,66.66
2023-01-29T02:38:01.941Z,66.69
2023-01-29T02:41:07.236Z,66.72
2023-01-29T02:43:48.369Z,66.66
2023-01-29T02:46:25.894Z,66.72
2023-01-29T02:48:59.781Z,66.57
2023-01-29T02:51:44.138Z,66.61
2023-01-29T02:54:23.123Z,66.57
2023-01-29T02:57:14.879Z,66.61
2023-01-29T02:59:48.453Z,66.69
2023-01-29T03:02:22.273Z,66.56
2023-01-29T03:05:00.062Z,66.53
2023-01-29T03:07:46.972Z,66.49
2023-01-29T03:10:29.085Z,66.60
2023-01-29T03:13:21.030Z,66.66
2023-01-29T03:15:55.067Z,66.72
2023-01-29T03:19:02.132Z,66.73
2023-01-29T03:21:57.682Z,66.64
2023-01-29T03:24:49.468Z,66.65
2023-01-29T03:27:40.331Z,66.64
2023-01-29T03:30:31.699Z,66.58
2023-01-29T03:33:11.447Z,66.64
2023-01-29T03:35:48.508Z,66.65
2023-01-29T03:38:16.106Z,66.74
2023-01-29T03:40:57.937Z,66.66
2023-01-29T03:43:51.119Z,66.66
2023-01-29T03:46:44.360Z,66.74
2023-01-29T03:49:22.055Z,66.88
2023-01-29T03:51:58.396Z,66.75
2023-01-29T03:54:41.036Z,66.71
2023-01-29T03:57:29.977Z,66.68
2023-01-29T04:00:09.210Z,66.75
2023-01-29T04:03:26.384Z,66.80
2023-01-29T04:06:14.015Z,66.79
2023-01-29T04:09:13.239Z,66.76
2023-01-29T04:11:48.021Z,66.77
2023-01-29T04:14:15.732Z,66.87
2023-01-29T04:16:51.587Z,66.86
2023-01-29T04:19:39.758Z,66.80
2023-01-29T04:22:32.707Z,66.92
2023-01-29T04:25:08.559Z,66.93
2023-01-29T04:28:07.093Z,67.02
2023-01-29T04:31:12.359Z,67.04
2023-01-29T04:33:45.564Z,67.13
2023-01-29T04:36:31.016Z,66.93
2023-01-29T04:39:13.812Z,66.86
2023-01-29T04:41:55.681Z,66.96
2023-01-29T04:44:34.274Z,66.81
2023-01-29T04:47:04.048Z,67.00
2023-01-29T04:49:43.622Z,66.97
2023-01-29T04:52:29.491Z,66.95
2023-01-29T04:55:08.952Z,66.92
2023-01-29T04:57:46.368Z,67.08
2023-01-29T05:00:16.490Z,66.93
2023-01-29T05:02:46.001Z,67.08
2023-01-29T05:05:15.760Z,67.08
2023-01-29T05:07:44.267Z,67.04
2023-01-29T05:10:13.539Z,67.07
2023-01-29T05:12:43.713Z,67.16
2023-01-29T05:15:17.674Z,67.17
2023-01-29T05:17:44.937Z,67.22
2023-01-29T05:20:12.819Z,67.24
2023-01-29T05:22:41.596Z,67.32
2023-01-29T05:25:24.762Z,67.33
2023-01-29T05:28:11.990Z,67.40
2023-01-29T05:30:40.278Z,67.43
2023-01-29T05:33:17.341Z,67.32
2023-01-29T05:35:45.285Z,67.46
2023-01-29T05:38:13.102Z,67.50
2023-01-29T05:40:40.353Z,67.57
2023-01-29T05:43:18.008Z,67.73
2023-01-29T05:45:53.808Z,67.68
2023-01-29T05:48:21.035Z,67.57
2023-01-29T05:50:48.414Z,67.67
2023-01-29T05:53:15.625Z,67.64
2023-01-29T05:55:48.812Z,67.70
2023-01-29T05:58:16.245Z,67.76
2023-01-29T06:00:43.445Z,67.88
2023-01-29T06:03:10.704Z,67.77
2023-01-29T06:05:38.666Z,67.80
2023-01-29T06:08:07.300Z,67.69
2023-01-29T06:10:34.886Z,67.79
2023-01-29T06:13:02.113Z,67.76
2023-01-29T06:15:29.321Z,67.83
2023-01-29T06:17:57.319Z,67.79
2023-01-29T06:20:25.188Z,67.92
2023-01-29T06:22:52.438Z,67.95
2023-01-29T06:25:19.560Z,67.84
2023-01-29T06:27:46.781Z,67.87
2023-01-29T06:30:14.647Z,67.81
2023-01-29T06:32:42.078Z,67.92
2023-01-29T06:35:10.381Z,68.05
2023-01-29T06:37:37.611Z,67.94
2023-01-29T06:40:05.247Z,67.84
2023-01-29T06:42:32.473Z,67.94
2023-01-29T06:44:59.629Z,67.97
2023-01-29T06:47:27.701Z,68.01
2023-01-29T06:49:55.157Z,68.03
2023-01-29T06:52:22.261Z,68.01
2023-01-29T06:54:49.508Z,68.06
2023-01-29T06:57:16.683Z,68.06
2023-01-29T06:59:43.908Z,68.08
2023-01-29T07:02:11.243Z,68.11
2023-01-29T07:04:39.345Z,68.12
2023-01-29T07:07:12.916Z,67.96
2023-01-29T07:09:41.914Z,68.24
2023-01-29T07:12:11.723Z,68.24
2023-01-29T07:14:38.872Z,68.18
2023-01-29T07:17:05.947Z,68.14
2023-01-29T07:19:33.178Z,68.15
2023-01-29T07:22:02.620Z,68.20
2023-01-29T07:24:30.032Z,68.22
2023-01-29T07:26:57.263Z,68.22
2023-01-29T07:29:24.452Z,68.08
2023-01-29T07:31:51.836Z,68.09
2023-01-29T07:34:19.177Z,68.21
2023-01-29T07:36:46.299Z,68.30
2023-01-29T07:39:13.552Z,68.27
2023-01-29T07:41:40.760Z,68.28
2023-01-29T07:44:15.965Z,68.35
2023-01-29T07:46:43.359Z,68.31
2023-01-29T07:49:11.195Z,68.35
2023-01-29T07:51:38.344Z,68.29
2023-01-29T07:54:05.627Z,68.39
2023-01-29T07:56:32.743Z,68.33
2023-01-29T07:59:00.201Z,68.38
2023-01-29T08:01:27.446Z,68.55
2023-01-29T08:03:54.720Z,68.54
2023-01-29T08:06:21.816Z,68.51
2023-01-29T08:08:49.032Z,68.45
2023-01-29T08:11:16.214Z,68.57
2023-01-29T08:13:43.386Z,68.50
2023-01-29T08:16:10.690Z,68.50
2023-01-29T08:18:38.735Z,68.52
2023-01-29T08:21:06.091Z,68.54
2023-01-29T08:23:33.253Z,68.70
2023-01-29T08:26:03.230Z,68.66
2023-01-29T08:28:30.446Z,68.61
2023-01-29T08:30:57.886Z,68.66
2023-01-29T08:33:38.316Z,68.75
2023-01-29T08:36:07.290Z,68.65
2023-01-29T08:38:36.063Z,68.66
2023-01-29T08:41:03.602Z,68.82
2023-01-29T08:43:30.809Z,68.72
2023-01-29T08:45:58.103Z,68.84
2023-01-29T08:48:25.419Z,68.73
2023-01-29T08:50:52.585Z,68.74
2023-01-29T08:53:24.470Z,68.82
2023-01-29T08:55:52.539Z,68.84
2023-01-29T08:58:20.081Z,68.92
2023-01-29T09:00:47.309Z,68.75
2023-01-29T09:03:14.702Z,68.92
2023-01-29T09:05:42.097Z,68.83
2023-01-29T09:08:10.519Z,68.85
2023-01-29T09:10:37.748Z,68.85
2023-01-29T09:13:05.154Z,68.83
2023-01-29T09:15:32.435Z,68.82
2023-01-29T09:18:04.041Z,68.88
2023-01-29T09:20:31.444Z,69.04
2023-01-29T09:22:59.364Z,68.96
2023-01-29T09:25:26.462Z,68.96
2023-01-29T09:27:54.894Z,68.98
2023-01-29T09:30:22.247Z,69.00
2023-01-29T09:32:53.640Z,69.07
2023-01-29T09:35:24.670Z,69.12
2023-01-29T09:37:52.409Z,69.17
2023-01-29T09:40:29.146Z,69.08
2023-01-29T09:43:09.671Z,69.10
2023-01-29T09:45:41.258Z,69.12
2023-01-29T09:48:12.033Z,69.14
2023-01-29T09:50:43.740Z,69.17
2023-01-29T09:53:13.891Z,69.08
2023-01-29T09:55:48.511Z,69.25
2023-01-29T09:58:25.527Z,69.16
2023-01-29T10:01:05.226Z,69.36
2023-01-29T10:03:41.197Z,69.20
2023-01-29T10:06:29.159Z,69.25
2023-01-29T10:09:11.670Z,69.29
2023-01-29T10:11:54.463Z,69.27
2023-01-29T10:14:38.197Z,69.29
2023-01-29T10:17:39.579Z,69.25
2023-01-29T10:20:25.268Z,69.27
2023-01-29T10:23:17.225Z,69.38
2023-01-29T10:25:47.471Z,69.40
2023-01-29T10:28:29.923Z,69.42
2023-01-29T10:31:06.307Z,69.41
2023-01-29T10:33:59.488Z,69.50
2023-01-29T10:36:36.439Z,69.49
2023-01-29T10:39:03.715Z,69.52
2023-01-29T10:41:37.139Z,69.45
2023-01-29T10:44:28.021Z,69.50
2023-01-29T10:46:58.357Z,69.53
2023-01-29T10:50:13.623Z,69.58
2023-01-29T10:52:50.067Z,69.59
2023-01-29T10:55:36.959Z,69.57
2023-01-29T10:58:25.748Z,69.50
2023-01-29T11:00:53.004Z,69.70
2023-01-29T11:03:30.586Z,69.69
2023-01-29T11:06:16.233Z,69.62
2023-01-29T11:08:51.156Z,69.66
2023-01-29T11:11:22.459Z,69.77
2023-01-29T11:14:24.751Z,69.74
2023-01-29T11:16:52.176Z,69.80
2023-01-29T11:19:36.616Z,69.84
2023-01-29T11:22:04.529Z,69.79
2023-01-29T11:24:31.710Z,69.79
2023-01-29T11:27:00.297Z,69.79
2023-01-29T11:29:30.223Z,69.86
2023-01-29T11:31:59.765Z,69.74
2023-01-29T11:34:33.258Z,69.89
2023-01-29T11:37:03.496Z,69.90
2023-01-29T11:39:33.233Z,69.94
2023-01-29T11:42:04.145Z,69.92
2023-01-29T11:44:40.506Z,69.92
2023-01-29T11:47:16.539Z,69.79
2023-01-29T11:49:49.707Z,69.85
2023-01-29T11:52:20.985Z,69.87
2023-01-29T11:54:55.532Z,69.93
2023-01-29T11:57:25.670Z,69.96
2023-01-29T11:59:55.257Z,69.96
2023-01-29T12:02:31.745Z,69.97
2023-01-29T12:05:15.924Z,70.02
2023-01-29T12:07:46.352Z,70.14
2023-01-29T12:10:36.850Z,70.05
2023-01-29T12:13:10.014Z,70.06
2023-01-29T12:15:39.316Z,70.04
2023-01-29T12:18:16.769Z,70.14
2023-01-29T12:21:05.261Z,70.18
2023-01-29T12:23:51.072Z,70.25
2023-01-29T12:26:39.580Z,70.20
2023-01-29T12:29:25.722Z,70.23
2023-01-29T12:32:17.854Z,70.20
2023-01-29T12:34:47.412Z,70.15
2023-01-29T12:37:25.148Z,70.25
2023-01-29T12:39:52.520Z,70.21
2023-01-29T12:42:24.585Z,70.26
2023-01-29T12:45:09.069Z,70.25
2023-01-29T12:47:40.013Z,70.31
2023-01-29T12:50:18.161Z,70.30
2023-01-29T12:52:52.095Z,70.36
2023-01-29T12:55:28.103Z,70.41
2023-01-29T12:57:58.104Z,70.46
2023-01-29T13:00:46.875Z,70.34
2023-01-29T13:03:17.521Z,70.42
2023-01-29T13:05:48.631Z,70.47
2023-01-29T13:08:37.927Z,70.52
2023-01-29T13:11:11.354Z,70.52
2023-01-29T13:13:54.633Z,70.47
2023-01-29T13:16:26.279Z,70.61
2023-01-29T13:18:58.043Z,70.53
2023-01-29T13:21:34.020Z,70.54
2023-01-29T13:24:11.212Z,70.57
2023-01-29T13:26:40.714Z,70.62
2023-01-29T13:29:25.768Z,70.59
2023-01-29T13:31:55.904Z,70.66
2023-01-29T13:34:28.594Z,70.68
2023-01-29T13:36:59.262Z,70.70
2023-01-29T13:39:44.666Z,70.74
2023-01-29T13:42:21.329Z,70.66
2023-01-29T13:44:51.441Z,70.71
2023-01-29T13:47:39.345Z,70.77
2023-01-29T13:50:08.253Z,70.86
2023-01-29T13:52:43.982Z,70.84
2023-01-29T13:55:13.899Z,70.84
2023-01-29T13:57:43.979Z,70.85
2023-01-29T14:00:33.945Z,70.89
2023-01-29T14:03:01.144Z,70.96
2023-01-29T14:05:29.579Z,70.95
2023-01-29T14:08:06.749Z,71.01
2023-01-29T14:10:35.271Z,70.97
2023-01-29T14:13:11.844Z,70.91
2023-01-29T14:15:40.189Z,70.95
2023-01-29T14:18:25.335Z,70.99
2023-01-29T14:21:28.479Z,70.98
2023-01-29T14:24:08.515Z,71.02
2023-01-29T14:26:38.806Z,70.96
2023-01-29T14:29:34.393Z,71.03
2023-01-29T14:32:25.063Z,71.03
2023-01-29T14:34:55.258Z,71.04
2023-01-29T14:37:26.556Z,71.04
2023-01-29T14:39:57.822Z,71.11
2023-01-29T14:42:27.509Z,70.99
2023-01-29T14:44:54.688Z,71.07
2023-01-29T14:47:27.497Z,71.01
2023-01-29T14:49:56.333Z,71.07
2023-01-29T14:52:42.323Z,71.04
2023-01-29T14:55:19.619Z,71.05
2023-01-29T14:57:48.941Z,71.06
2023-01-29T15:00:24.283Z,71.14
2023-01-29T15:03:01.336Z,71.26
2023-01-29T15:05:35.660Z,71.16
2023-01-29T15:08:42.906Z,71.18
2023-01-29T15:11:36.504Z,71.18
2023-01-29T15:14:19.017Z,71.13
2023-01-29T15:17:06.136Z,71.19
2023-01-29T15:19:44.993Z,71.22
2023-01-29T15:22:18.087Z,71.19
2023-01-29T15:24:47.060Z,71.22
2023-01-29T15:27:17.330Z,71.31
2023-01-29T15:29:50.813Z,71.33
2023-01-29T15:32:29.109Z,71.41
2023-01-29T15:34:58.761Z,71.33
2023-01-29T15:37:28.571Z,71.36
2023-01-29T15:39:56.840Z,71.35
2023-01-29T15:42:25.938Z,71.41
2023-01-29T15:44:56.858Z,71.37
2023-01-29T15:47:31.322Z,71.40
2023-01-29T15:49:58.575Z,71.54
2023-01-29T15:52:35.271Z,71.43
2023-01-29T15:55:06.223Z,71.50
2023-01-29T15:57:40.896Z,71.51
2023-01-29T16:00:21.327Z,71.61
2023-01-29T16:02:48.500Z,71.59
2023-01-29T16:05:19.668Z,71.49
2023-01-29T16:07:47.540Z,71.47
2023-01-29T16:10:21.408Z,71.47
2023-01-29T16:12:51.758Z,71.47
2023-01-29T16:15:34.828Z,71.59
2023-01-29T16:18:17.055Z,71.53
2023-01-29T16:20:50.399Z,71.51
2023-01-29T16:23:21.240Z,71.58
2023-01-29T16:25:49.785Z,71.52
2023-01-29T16:28:18.010Z,71.56
2023-01-29T16:30:45.489Z,71.49
2023-01-29T16:33:17.236Z,71.52
2023-01-29T16:35:52.026Z,71.53
2023-01-29T16:38:30.943Z,71.66
2023-01-29T16:41:28.923Z,71.74
2023-01-29T16:44:04.770Z,71.72
2023-01-29T16:46:34.986Z,71.68
2023-01-29T16:49:02.814Z,71.75
2023-01-29T16:51:47.931Z,71.65
2023-01-29T16:54:18.322Z,71.56
2023-01-29T16:56:52.138Z,71.78
2023-01-29T16:59:26.966Z,71.79
2023-01-29T17:01:57.272Z,71.78
2023-01-29T17:04:24.445Z,71.76
2023-01-29T17:06:57.816Z,71.78
2023-01-29T17:09:29.641Z,71.74
2023-01-29T17:12:02.717Z,71.95
2023-01-29T17:14:32.352Z,71.88
2023-01-29T17:17:05.564Z,71.94
2023-01-29T17:19:32.817Z,71.83
2023-01-29T17:22:00.137Z,71.85
2023-01-29T17:24:27.318Z,71.88
2023-01-29T17:26:54.615Z,71.88
2023-01-29T17:29:27.592Z,71.96
2023-01-29T17:31:56.149Z,71.98
2023-01-29T17:34:24.326Z,71.99
2023-01-29T17:36:51.628Z,71.95
2023-01-29T17:39:21.262Z,71.79
2023-01-29T17:41:56.204Z,71.95
2023-01-29T17:44:26.274Z,71.90
2023-01-29T17:46:53.931Z,72.01
2023-01-29T17:49:28.150Z,71.95
2023-01-29T17:51:56.708Z,71.98
2023-01-29T17:54:24.515Z,72.02
2023-01-29T17:56:53.051Z,72.06
2023-01-29T17:59:26.182Z,71.99
2023-01-29T18:01:53.746Z,71.90
2023-01-29T18:04:21.084Z,71.92
2023-01-29T18:06:50.537Z,71.97
2023-01-29T18:09:22.400Z,71.99
2023-01-29T18:11:50.899Z,72.04
2023-01-29T18:14:18.341Z,72.02
2023-01-29T18:16:45.649Z,72.06
2023-01-29T18:19:16.545Z,72.08
2023-01-29T18:21:43.780Z,72.10
2023-01-29T18:24:10.986Z,72.05
2023-01-29T18:26:38.359Z,72.03
2023-01-29T18:29:05.931Z,72.19
2023-01-29T18:31:33.184Z,72.10
2023-01-29T18:34:00.489Z,72.24
2023-01-29T18:36:27.686Z,72.17
2023-01-29T18:38:56.301Z,72.24
2023-01-29T18:41:23.921Z,72.17
2023-01-29T18:43:54.465Z,72.23
2023-01-29T18:46:24.330Z,72.23
2023-01-29T18:48:51.572Z,72.15
2023-01-29T18:51:18.785Z,72.28
2023-01-29T18:53:50.026Z,72.25
2023-01-29T18:56:17.282Z,72.32
2023-01-29T18:58:49.815Z,72.33
2023-01-29T19:01:19.528Z,72.37
2023-01-29T19:03:46.798Z,72.21
2023-01-29T19:06:13.994Z,72.26
2023-01-29T19:08:42.926Z,72.26
2023-01-29T19:11:12.663Z,72.34
2023-01-29T19:13:41.007Z,72.44
2023-01-29T19:16:10.003Z,72.40
2023-01-29T19:18:37.097Z,72.43
2023-01-29T19:21:10.573Z,72.48
2023-01-29T19:23:38.577Z,72.43
2023-01-29T19:26:06.318Z,72.45
2023-01-29T19:28:33.905Z,72.48
2023-01-29T19:31:01.713Z,72.41
2023-01-29T19:33:29.346Z,72.53
2023-01-29T19:36:00.078Z,72.43
2023-01-29T19:38:27.908Z,72.49
2023-01-29T19:40:58.040Z,72.48
2023-01-29T19:43:29.005Z,72.56
2023-01-29T19:46:01.196Z,72.43
2023-01-29T19:48:28.977Z,72.61
2023-01-29T19:50:58.386Z,72.57
2023-01-29T19:53:27.617Z,72.59
2023-01-29T19:56:08.748Z,72.57
2023-01-29T19:58:36.927Z,72.51
2023-01-29T20:01:07.951Z,72.69
2023-01-29T20:03:35.139Z,72.72
2023-01-29T20:06:04.242Z,72.58
2023-01-29T20:08:32.532Z,72.70
2023-01-29T20:11:00.193Z,72.68
2023-01-29T20:13:27.685Z,72.78
2023-01-29T20:15:55.867Z,72.69
2023-01-29T20:18:23.123Z,72.74
2023-01-29T20:20:53.163Z,72.71
2023-01-29T20:23:37.826Z,72.77
2023-01-29T20:26:12.556Z,72.72
2023-01-29T20:28:40.139Z,72.80
2023-01-29T20:31:09.103Z,72.82
2023-01-29T20:33:39.209Z,72.94
2023-01-29T20:36:10.480Z,72.88
2023-01-29T20:38:37.898Z,72.76
2023-01-29T20:41:06.773Z,72.75
2023-01-29T20:43:34.635Z,72.75
2023-01-29T20:46:02.473Z,72.73
2023-01-29T20:48:30.581Z,72.90
2023-01-29T20:51:04.533Z,72.88
2023-01-29T20:53:31.754Z,72.85
2023-01-29T20:55:59.066Z,72.94
2023-01-29T20:58:26.468Z,72.93
2023-01-29T21:00:53.613Z,72.92
2023-01-29T21:03:20.875Z,72.92
2023-01-29T21:05:48.096Z,72.98
2023-01-29T21:08:15.252Z,73.06
2023-01-29T21:10:43.356Z,73.00
2023-01-29T21:13:11.248Z,72.98
2023-01-29T21:15:38.562Z,73.08
2023-01-29T21:18:08.903Z,73.06
2023-01-29T21:20:36.528Z,73.08
2023-01-29T21:23:06.833Z,73.06
2023-01-29T21:25:34.424Z,73.07
2023-01-29T21:28:03.823Z,73.08
2023-01-29T21:30:31.049Z,73.12
2023-01-29T21:32:58.250Z,73.14
2023-01-29T21:35:26.295Z,73.07
2023-01-29T21:37:53.545Z,73.08
2023-01-29T21:40:21.360Z,73.10
2023-01-29T21:43:07.366Z,73.06
2023-01-29T21:45:35.727Z,73.14
2023-01-29T21:48:02.971Z,73.23
2023-01-29T21:50:30.290Z,73.10
2023-01-29T21:52:57.418Z,73.17
2023-01-29T21:55:24.594Z,73.10
2023-01-29T21:57:51.882Z,73.17
2023-01-29T22:00:19.815Z,73.10
2023-01-29T22:02:47.240Z,73.14
2023-01-29T22:05:19.433Z,73.15
2023-01-29T22:07:48.575Z,73.12
2023-01-29T22:10:19.755Z,73.18
2023-01-29T22:12:48.178Z,73.22
2023-01-29T22:15:16.269Z,73.20
2023-01-29T22:17:43.955Z,73.21
2023-01-29T22:20:16.802Z,73.12
2023-01-29T22:22:44.196Z,73.11
2023-01-29T22:25:20.111Z,73.25
2023-01-29T22:27:47.381Z,73.26
2023-01-29T22:30:14.774Z,73.19
2023-01-29T22:32:42.300Z,73.16
2023-01-29T22:35:10.650Z,73.21
2023-01-29T22:37:37.820Z,73.20
2023-01-29T22:40:05.653Z,73.18
2023-01-29T22:42:32.788Z,73.22
2023-01-29T22:44:59.986Z,73.21
2023-01-29T22:47:27.187Z,73.19
2023-01-29T22:49:54.492Z,73.15
2023-01-29T22:52:22.478Z,73.26
2023-01-29T22:54:51.568Z,73.27
2023-01-29T22:57:19.812Z,73.26
2023-01-29T22:59:46.999Z,73.29
2023-01-29T23:02:14.146Z,73.37
2023-01-29T23:04:41.383Z,73.31
2023-01-29T23:07:08.594Z,73.26
2023-01-29T23:09:35.729Z,73.42
2023-01-29T23:12:02.873Z,73.23
2023-01-29T23:14:29.991Z,73.30
2023-01-29T23:16:57.361Z,73.22
2023-01-29T23:19:24.685Z,73.20
2023-01-29T23:21:51.783Z,73.27
2023-01-29T23:24:19.067Z,73.35
2023-01-29T23:27:04.689Z,73.34
2023-01-29T23:29:31.827Z,73.38
2023-01-29T23:31:58.934Z,73.33
2023-01-29T23:34:26.056Z,73.32
2023-01-29T23:36:53.186Z,73.31
2023-01-29T23:39:20.725Z,73.40
2023-01-29T23:41:47.849Z,73.37
2023-01-29T23:44:15.034Z,73.28
2023-01-29T23:46:42.287Z,73.38
2023-01-29T23:49:09.401Z,73.34
2023-01-29T23:51:36.590Z,73.39
2023-01-29T23:54:04.353Z,73.40
2023-01-29T23:56:31.627Z,73.37
2023-01-29T23:58:58.790Z,73.39
